Lora Ann — WDA7867 — position and weather

sailwx.info

Track history (hours):
 
Tides and Currents Weather Stations Pressure Air Temp Water Temp Dewpoint Dewpoint Depression Visibility Wind Speed Wind Dir Waves Ship Positions

Lora Ann

Owner: du Moulin, Richard T, Larchmont, NY. More information available from US FCC via Universal Licensing System.

Last reported at 2014-Aug-31 06:30 UTC. Time now 2014-Dec-19 03:12 UTC.
Position N 40°55' W 073°44'.
Warning: this ship's position is months out of date.

Length 12 m.

Type: Sailing vessel. MMSI: 366848040.

Date/timePositionNaut miles runAvg speedWind from/ knotsBaromVisibWave heightAir tempDewpointWater temp
2014-Aug-31 06:30N 40°55' W 073°44'5 5.6
2014-Aug-31 05:33N 40°58' W 073°38'6 5.3
2014-Aug-31 04:29N 41°01' W 073°32'5 5.7
2014-Aug-31 03:33N 41°01' W 073°25'7 7.1
2014-Aug-31 02:31N 41°02' W 073°15'7 7.0
2014-Aug-31 01:31N 41°04' W 073°06'7 6.4
2014-Aug-31 00:27N 41°05' W 072°57'6 6.5
2014-Aug-30 23:32N 41°06' W 072°50'6 6.4
2014-Aug-30 22:33N 41°08' W 072°42'6 5.8
2014-Aug-30 21:33N 41°09' W 072°34'6 5.9
2014-Aug-30 20:33N 41°11' W 072°27'6 6.0
2014-Aug-30 19:33N 41°12' W 072°19'7 6.8
2014-Aug-30 18:34N 41°12' W 072°10'8 7.9
2014-Aug-30 17:30N 41°10' W 071°59'8 8.2
2014-Aug-30 16:33N 41°10' W 071°49'7 6.8
2014-Aug-30 15:33N 41°09' W 071°40'7 6.8
2014-Aug-30 14:33N 41°09' W 071°31'7 7.4
2014-Aug-30 13:33N 41°13' W 071°23'7 6.8
2014-Aug-30 12:33N 41°17' W 071°15'7 7.1
2014-Aug-30 11:31N 41°22' W 071°07'2 2.4
2014-Aug-30 10:33N 41°23' W 071°05'6 6.2
2014-Aug-30 09:33N 41°21' W 071°13'6 6.2
2014-Aug-30 08:34N 41°19' W 071°21'6 6.4
2014-Aug-30 07:33N 41°17' W 071°29'6 6.5
2014-Aug-30 06:33N 41°16' W 071°37'6 6.3
2014-Aug-30 05:33N 41°14' W 071°45'6 5.8
2014-Aug-30 04:33N 41°12' W 071°52'6 5.6
2014-Aug-30 03:33N 41°11' W 071°60'6 5.9
2014-Aug-30 02:33N 41°10' W 072°07'6 5.6
2014-Aug-30 01:33N 41°10' W 072°15'7 6.9
2014-Aug-30 00:33N 41°10' W 072°24'8 8.1
2014-Aug-29 23:34N 41°09' W 072°35'8 8.1
2014-Aug-29 22:33N 41°08' W 072°45'  
2014-Aug-26 17:21N 40°55' W 073°44'3 3.1
2014-Aug-26 16:25N 40°53' W 073°47'  
Track history (hours):
 
Tides and Currents Weather Stations Pressure Air Temp Water Temp Dewpoint Dewpoint Depression Visibility Wind Speed Wind Dir Waves Ship Positions

Lora Ann

Owner: du Moulin, Richard T, Larchmont, NY. More information available from US FCC via Universal Licensing System.

Last reported at 2014-Aug-31 06:30 UTC. Time now 2014-Dec-19 03:12 UTC.
Position N 40°55' W 073°44'.
Warning: this ship's position is months out of date.

Length 12 m.

Type: Sailing vessel. MMSI: 366848040.

Date/timePositionNaut miles runAvg speedWind from/ knotsBaromVisibWave heightAir tempDewpointWater temp
2014-Aug-31 06:30N 40°55' W 073°44'5 5.6
2014-Aug-31 05:33N 40°58' W 073°38'6 5.3
2014-Aug-31 04:29N 41°01' W 073°32'5 5.7
2014-Aug-31 03:33N 41°01' W 073°25'7 7.1
2014-Aug-31 02:31N 41°02' W 073°15'7 7.0
2014-Aug-31 01:31N 41°04' W 073°06'7 6.4
2014-Aug-31 00:27N 41°05' W 072°57'6 6.5
2014-Aug-30 23:32N 41°06' W 072°50'6 6.4
2014-Aug-30 22:33N 41°08' W 072°42'6 5.8
2014-Aug-30 21:33N 41°09' W 072°34'6 5.9
2014-Aug-30 20:33N 41°11' W 072°27'6 6.0
2014-Aug-30 19:33N 41°12' W 072°19'7 6.8
2014-Aug-30 18:34N 41°12' W 072°10'8 7.9
2014-Aug-30 17:30N 41°10' W 071°59'8 8.2
2014-Aug-30 16:33N 41°10' W 071°49'7 6.8
2014-Aug-30 15:33N 41°09' W 071°40'7 6.8
2014-Aug-30 14:33N 41°09' W 071°31'7 7.4
2014-Aug-30 13:33N 41°13' W 071°23'7 6.8
2014-Aug-30 12:33N 41°17' W 071°15'7 7.1
2014-Aug-30 11:31N 41°22' W 071°07'2 2.4
2014-Aug-30 10:33N 41°23' W 071°05'6 6.2
2014-Aug-30 09:33N 41°21' W 071°13'6 6.2
2014-Aug-30 08:34N 41°19' W 071°21'6 6.4
2014-Aug-30 07:33N 41°17' W 071°29'6 6.5
2014-Aug-30 06:33N 41°16' W 071°37'6 6.3
2014-Aug-30 05:33N 41°14' W 071°45'6 5.8
2014-Aug-30 04:33N 41°12' W 071°52'6 5.6
2014-Aug-30 03:33N 41°11' W 071°60'6 5.9
2014-Aug-30 02:33N 41°10' W 072°07'6 5.6
2014-Aug-30 01:33N 41°10' W 072°15'7 6.9
2014-Aug-30 00:33N 41°10' W 072°24'8 8.1
2014-Aug-29 23:34N 41°09' W 072°35'8 8.1
2014-Aug-29 22:33N 41°08' W 072°45'  
2014-Aug-26 17:21N 40°55' W 073°44'3 3.1
2014-Aug-26 16:25N 40°53' W 073°47'  

Dump ship's entire track history